Time;durP1;ratioP1;P1;durP2;ratioP2;P2;SDS_P1;SDS_P2;PMS_P1;PMS_P2;Temp;Humidity;BMP_temperature;BMP_pressure;BME280_temperature;BME280_humidity;BME280_pressure;Samples;Min_cycle;Max_cycle;Signal;HPM_P1;HPM_P2
2023/06/07 08:46:35;;;;;;;1.38;1.20;;;;;;;35.44;41.14;98815.66;5021263;28;20533;-76
2023/06/07 08:49:02;;;;;;;1.40;1.20;;;;;;;37.27;40.59;98814.16;5033695;28;20390;-74
2023/06/07 08:51:28;;;;;;;1.67;1.48;;;;;;;38.37;37.42;98794.06;5032285;28;20041;-75
2023/06/07 08:54:02;;;;;;;2.13;1.17;;;;;;;34.99;40.81;98814.25;5017910;28;20052;-78
2023/06/07 08:56:29;;;;;;;1.35;1.10;;;;;;;35.28;41.79;98820.53;5028410;28;20061;-80
2023/06/07 08:58:55;;;;;;;2.67;1.13;;;;;;;37.62;38.57;98798.91;5016065;28;20057;-77
2023/06/07 09:01:21;;;;;;;0.95;0.80;;;;;;;37.56;36.92;98797.63;5013479;28;20094;-79
2023/06/07 09:03:56;;;;;;;4.88;1.00;;;;;;;35.72;39.55;98826.72;5009274;28;20117;-79
2023/06/07 09:06:22;;;;;;;0.88;0.88;;;;;;;34.46;41.60;98817.34;5022915;28;20033;-79
2023/06/07 09:08:48;;;;;;;2.55;1.33;;;;;;;33.88;43.74;98824.56;5013591;28;20087;-76
2023/06/07 09:11:14;;;;;;;1.58;1.35;;;;;;;33.31;44.42;98818.91;5025174;28;20028;-77
2023/06/07 09:13:40;;;;;;;2.92;1.63;;;;;;;32.28;45.79;98819.97;5019413;28;20045;-76
2023/06/07 09:16:05;;;;;;;3.15;1.50;;;;;;;30.98;48.34;98815.50;5021745;28;20041;-77
2023/06/07 09:18:44;;;;;;;3.78;1.38;;;;;;;29.71;51.78;98813.28;5022598;28;20026;-77
2023/06/07 09:21:27;;;;;;;1.63;1.00;;;;;;;28.34;57.68;98830.16;5010541;28;20068;-77
2023/06/07 09:23:54;;;;;;;1.85;1.15;;;;;;;27.99;62.12;98832.75;5019251;28;20058;-76
2023/06/07 09:26:22;;;;;;;3.58;1.20;;;;;;;27.49;65.97;98821.75;5017960;28;20495;-74
2023/06/07 09:28:48;;;;;;;17.60;2.60;;;;;;;27.50;71.35;98831.72;5017430;28;20033;-73
2023/06/07 09:31:34;;;;;;;1.27;0.90;;;;;;;28.38;67.83;98828.38;5010640;28;20124;-76
2023/06/07 09:34:17;;;;;;;4.75;1.27;;;;;;;30.80;56.95;98812.75;5027595;28;20033;-78
2023/06/07 09:36:50;;;;;;;3.17;1.10;;;;;;;34.74;48.06;98813.63;5029347;28;20025;-76
2023/06/07 09:39:23;;;;;;;0.80;0.75;;;;;;;38.55;40.12;98814.03;5027845;28;20021;-76
2023/06/07 09:41:54;;;;;;;1.33;0.88;;;;;;;41.23;35.22;98812.53;5014113;28;20022;-77
2023/06/07 09:44:24;;;;;;;0.80;0.80;;;;;;;42.49;33.25;98809.91;5011349;28;20436;-77
2023/06/07 09:46:51;;;;;;;1.02;0.90;;;;;;;43.18;31.62;98808.91;4993748;28;20378;-77
2023/06/07 09:49:34;;;;;;;3.05;1.55;;;;;;;38.98;34.33;98820.03;5014638;28;20035;-77
2023/06/07 09:52:01;;;;;;;1.30;1.20;;;;;;;35.76;38.46;98812.72;5015938;28;20079;-76
2023/06/07 09:54:38;;;;;;;0.98;0.88;;;;;;;33.20;43.10;98814.13;5031210;28;20026;-78
2023/06/07 09:57:09;;;;;;;0.83;0.83;;;;;;;31.39;45.77;98802.72;5042545;28;20029;-78
2023/06/07 09:59:38;;;;;;;1.10;0.88;;;;;;;30.97;48.84;98802.69;5042300;28;20029;-78
2023/06/07 10:02:24;;;;;;;1.27;1.17;;;;;;;33.46;46.52;98810.91;5006011;28;20083;-74
2023/06/07 10:04:49;;;;;;;3.42;1.60;;;;;;;36.83;40.90;98794.13;4997216;28;20053;-74
2023/06/07 10:07:16;;;;;;;1.70;1.60;;;;;;;39.80;35.84;98794.22;5028130;28;20025;-73
2023/06/07 10:09:42;;;;;;;1.20;1.00;;;;;;;40.03;34.38;98788.19;5011915;28;20405;-74
2023/06/07 10:12:10;;;;;;;2.10;1.10;;;;;;;40.99;32.89;98803.66;5034437;28;20443;-74
2023/06/07 10:14:37;;;;;;;0.80;0.80;;;;;;;40.24;32.69;98801.59;5034180;28;20209;-74
2023/06/07 10:17:07;;;;;;;2.38;0.88;;;;;;;40.23;33.41;98797.16;5031945;28;20034;-75
2023/06/07 10:19:37;;;;;;;0.70;0.70;;;;;;;41.16;32.66;98799.16;5021211;28;20033;-75
2023/06/07 10:22:08;;;;;;;1.15;0.80;;;;;;;40.47;32.37;98804.06;5017491;28;20125;-74
2023/06/07 10:24:46;;;;;;;2.33;0.73;;;;;;;39.61;33.24;98795.31;5011157;28;20400;-75
2023/06/07 10:27:13;;;;;;;;;;;;;;;39.42;33.78;98782.31;5015220;28;20025;-75
2023/06/07 10:29:41;;;;;;;0.68;0.60;;;;;;;40.48;31.92;98787.84;5033414;28;19913;-75
2023/06/07 10:32:12;;;;;;;0.60;0.60;;;;;;;41.36;32.09;98783.28;5032582;28;20495;-74
2023/06/07 10:34:38;;;;;;;0.70;0.70;;;;;;;41.05;31.39;98782.13;5027472;28;20036;-76
2023/06/07 10:37:07;;;;;;;1.35;0.60;;;;;;;40.36;32.44;98782.59;5011943;28;20052;-77
2023/06/07 10:39:32;;;;;;;0.70;0.70;;;;;;;41.57;30.83;98790.94;5032037;28;20044;-78
2023/06/07 10:41:58;;;;;;;1.77;0.77;;;;;;;40.83;31.61;98784.22;5011579;28;20040;-76
2023/06/07 10:44:24;;;;;;;0.65;0.65;;;;;;;41.78;30.97;98786.38;5004197;28;20022;-76
2023/06/07 10:47:09;;;;;;;0.70;0.70;;;;;;;42.62;30.25;98783.38;5014311;28;20491;-77
2023/06/07 10:49:36;;;;;;;0.77;0.70;;;;;;;38.65;31.39;98786.25;4996038;28;20029;-76
2023/06/07 10:52:03;;;;;;;3.13;0.80;;;;;;;36.26;35.40;98782.69;5026262;28;20025;-76
2023/06/07 10:54:30;;;;;;;1.25;0.70;;;;;;;34.97;37.44;98777.22;5027187;28;20104;-76
2023/06/07 10:56:55;;;;;;;0.70;0.70;;;;;;;34.93;37.86;98769.91;5022359;28;20025;-81
2023/06/07 10:59:22;;;;;;;2.65;0.85;;;;;;;34.89;38.55;98764.19;4995904;28;20029;-73
2023/06/07 11:01:52;;;;;;;2.08;0.70;;;;;;;36.41;37.16;98783.78;5022602;28;20125;-72
2023/06/07 11:04:30;;;;;;;0.80;0.80;;;;;;;38.49;33.81;98775.19;5024823;28;20112;-73
2023/06/07 11:07:15;;;;;;;;;;;;;;;40.63;31.55;98772.44;5003291;28;20030;-72
2023/06/07 11:09:42;;;;;;;1.15;0.88;;;;;;;42.19;30.00;98760.16;5022751;28;19952;-69
2023/06/07 11:12:07;;;;;;;1.38;0.98;;;;;;;42.02;29.87;98762.69;5023502;28;20396;-70
2023/06/07 11:14:33;;;;;;;0.90;0.70;;;;;;;41.37;30.24;98769.88;5020911;28;20036;-70
2023/06/07 11:16:58;;;;;;;1.58;0.80;;;;;;;41.88;30.47;98782.66;5028935;28;20017;-71
2023/06/07 11:19:23;;;;;;;1.83;0.90;;;;;;;44.00;28.74;98775.72;5026746;28;20036;-72
2023/06/07 11:22:00;;;;;;;0.83;0.60;;;;;;;43.70;27.40;98774.47;5028948;28;20438;-72
2023/06/07 11:24:25;;;;;;;0.60;0.60;;;;;;;41.16;29.57;98768.78;5015201;28;20289;-79
2023/06/07 11:26:51;;;;;;;1.00;0.90;;;;;;;40.45;29.80;98777.31;5022520;28;20095;-71
2023/06/07 11:29:17;;;;;;;1.85;0.90;;;;;;;36.93;32.95;98754.00;5012950;28;20030;-70
2023/06/07 11:31:47;;;;;;;0.90;0.80;;;;;;;34.48;36.87;98770.06;5020329;28;20075;-70
2023/06/07 11:34:14;;;;;;;1.27;0.77;;;;;;;34.16;37.92;98763.59;5023984;28;20025;-70
2023/06/07 11:36:40;;;;;;;7.47;1.23;;;;;;;35.16;37.37;98756.78;5009289;28;20033;-70
2023/06/07 11:39:08;;;;;;;1.63;0.80;;;;;;;36.29;36.27;98765.06;5018680;28;20120;-70
2023/06/07 11:41:37;;;;;;;1.45;0.90;;;;;;;37.41;34.64;98751.44;5023618;28;20446;-71
2023/06/07 11:44:03;;;;;;;0.80;0.80;;;;;;;36.70;33.39;98767.34;5009320;28;20029;-70
2023/06/07 11:46:32;;;;;;;4.43;1.00;;;;;;;40.28;31.86;98765.59;5025887;28;20340;-70
2023/06/07 11:49:07;;;;;;;2.33;0.80;;;;;;;40.39;30.83;98753.44;5028686;28;20041;-70
2023/06/07 11:51:33;;;;;;;8.05;1.38;;;;;;;41.55;30.01;98744.28;5028020;28;20035;-71
2023/06/07 11:53:58;;;;;;;4.07;0.85;;;;;;;41.12;30.19;98750.94;5031700;28;20108;-71
2023/06/07 11:56:25;;;;;;;1.25;0.70;;;;;;;39.33;31.12;98750.75;5031763;28;20037;-70
2023/06/07 11:58:51;;;;;;;2.13;0.80;;;;;;;37.00;34.12;98744.84;5026500;28;20112;-71
2023/06/07 12:01:17;;;;;;;0.63;0.63;;;;;;;34.23;37.65;98746.13;5020991;28;20144;-70
2023/06/07 12:03:43;;;;;;;0.68;0.68;;;;;;;33.11;38.71;98744.19;5026338;28;20060;-70
2023/06/07 12:06:09;;;;;;;0.90;0.68;;;;;;;31.55;40.53;98739.41;5019798;28;20025;-70
2023/06/07 12:08:34;;;;;;;1.10;1.00;;;;;;;31.30;41.81;98730.06;5019342;28;20029;-71
2023/06/07 12:11:01;;;;;;;0.50;0.50;;;;;;;32.65;41.03;98737.97;5024611;28;20402;-70
2023/06/07 12:13:30;;;;;;;2.13;0.90;;;;;;;32.38;40.39;98731.88;5028936;28;20026;-70
2023/06/07 12:15:57;;;;;;;1.05;0.95;;;;;;;32.72;40.81;98729.78;5026201;28;20044;-70
2023/06/07 12:18:26;;;;;;;0.68;0.68;;;;;;;35.42;37.60;98736.44;5021207;28;20032;-70
2023/06/07 12:21:08;;;;;;;1.00;0.90;;;;;;;37.83;34.47;98726.91;5014746;28;20636;-70
2023/06/07 12:23:38;;;;;;;1.95;0.90;;;;;;;38.92;33.65;98719.78;5023023;28;20029;-71
2023/06/07 12:26:11;;;;;;;1.42;0.63;;;;;;;39.54;31.38;98721.69;5030834;28;20021;-71
2023/06/07 12:28:38;;;;;;;0.50;0.50;;;;;;;40.65;30.17;98727.50;5018338;28;20025;-70
2023/06/07 12:31:16;;;;;;;1.90;0.73;;;;;;;41.20;30.02;98717.66;5020920;28;20029;-71
2023/06/07 12:33:55;;;;;;;0.70;0.60;;;;;;;40.84;29.42;98729.06;5029595;28;20116;-71
2023/06/07 12:36:22;;;;;;;0.50;0.50;;;;;;;39.98;29.36;98723.41;5022040;28;20036;-70
2023/06/07 12:38:47;;;;;;;1.40;0.55;;;;;;;40.47;29.90;98712.50;5021398;28;20499;-70
2023/06/07 12:41:12;;;;;;;0.70;0.70;;;;;;;36.56;32.46;98706.75;5022557;28;20104;-70
2023/06/07 12:43:44;;;;;;;0.57;0.50;;;;;;;38.46;31.82;98697.66;5013344;28;20484;-70
2023/06/07 12:46:10;;;;;;;0.80;0.65;;;;;;;40.41;30.29;98691.47;5021857;28;20388;-69
2023/06/07 12:48:36;;;;;;;0.60;0.50;;;;;;;40.64;29.57;98699.50;5024049;28;20560;-70
2023/06/07 12:51:01;;;;;;;1.95;0.85;;;;;;;40.89;29.01;98697.44;5021003;28;20033;-70
2023/06/07 12:53:27;;;;;;;1.08;0.40;;;;;;;40.79;29.17;98686.13;5026488;28;20092;-70
2023/06/07 12:55:52;;;;;;;0.70;0.57;;;;;;;41.16;29.63;98689.28;5028278;28;20061;-70
2023/06/07 12:58:18;;;;;;;1.33;0.63;;;;;;;42.34;28.36;98682.06;5014691;28;20339;-70
2023/06/07 13:00:43;;;;;;;0.73;0.57;;;;;;;41.97;28.29;98674.22;5031077;28;20430;-69
2023/06/07 13:03:09;;;;;;;0.70;0.60;;;;;;;43.06;27.27;98675.59;5025516;28;20021;-71
2023/06/07 13:05:34;;;;;;;0.80;0.60;;;;;;;42.94;27.02;98656.22;5023513;28;20034;-70
2023/06/07 13:08:00;;;;;;;0.83;0.50;;;;;;;42.28;27.41;98665.84;5026655;28;20280;-70
2023/06/07 13:10:25;;;;;;;0.50;0.40;;;;;;;42.07;27.75;98658.31;5021703;28;20796;-70
2023/06/07 13:12:50;;;;;;;0.95;0.60;;;;;;;41.72;27.92;98663.03;5015917;28;20018;-70
2023/06/07 13:15:16;;;;;;;0.88;0.50;;;;;;;41.55;27.93;98662.72;5026405;28;20030;-71
2023/06/07 13:17:41;;;;;;;1.73;0.63;;;;;;;40.62;28.86;98662.25;5023765;28;20044;-70
2023/06/07 13:20:07;;;;;;;0.47;0.47;;;;;;;39.44;29.03;98649.66;5012883;28;20399;-70
2023/06/07 13:22:33;;;;;;;0.65;0.55;;;;;;;40.86;28.92;98654.91;5011845;28;20502;-70
2023/06/07 13:24:59;;;;;;;0.63;0.50;;;;;;;40.87;28.68;98648.00;5028720;28;20101;-70
2023/06/07 13:27:26;;;;;;;7.68;1.58;;;;;;;41.08;28.57;98632.94;5026344;28;20506;-70
2023/06/07 13:29:52;;;;;;;1.50;0.50;;;;;;;38.71;29.45;98649.75;5029169;28;20030;-70
2023/06/07 13:32:17;;;;;;;3.22;0.98;;;;;;;40.25;28.71;98641.66;5034732;28;20176;-70
2023/06/07 13:34:42;;;;;;;10.65;1.45;;;;;;;39.88;28.98;98642.88;5028532;28;20113;-70
2023/06/07 13:37:08;;;;;;;4.67;0.90;;;;;;;39.87;28.90;98632.75;5028223;28;20036;-70
2023/06/07 13:39:33;;;;;;;4.00;0.43;;;;;;;40.84;28.70;98631.81;5018998;28;20025;-70
2023/06/07 13:41:58;;;;;;;2.57;0.50;;;;;;;38.94;27.22;98626.06;5034033;28;20044;-70
2023/06/07 13:44:23;;;;;;;0.67;0.50;;;;;;;39.15;28.51;98625.31;5022721;28;20288;-70
2023/06/07 13:46:50;;;;;;;0.77;0.60;;;;;;;40.43;28.12;98618.13;5013613;28;20032;-70
2023/06/07 13:49:15;;;;;;;2.00;0.35;;;;;;;41.71;25.98;98621.63;5025836;28;20323;-70
2023/06/07 13:51:41;;;;;;;0.68;0.47;;;;;;;40.69;25.96;98620.53;5027287;28;20057;-70
2023/06/07 13:54:06;;;;;;;0.70;0.50;;;;;;;39.15;27.33;98608.34;5033144;28;20025;-70
2023/06/07 13:56:32;;;;;;;2.05;0.40;;;;;;;41.04;27.85;98612.28;5031841;28;20127;-70
2023/06/07 13:58:58;;;;;;;1.33;0.68;;;;;;;41.42;26.76;98616.13;5032869;28;20109;-71
2023/06/07 14:01:23;;;;;;;0.70;0.45;;;;;;;41.70;25.94;98608.66;5011338;28;20033;-70
2023/06/07 14:03:49;;;;;;;0.57;0.57;;;;;;;41.35;26.22;98602.78;5024610;28;20487;-70
2023/06/07 14:06:15;;;;;;;1.02;0.40;;;;;;;40.33;26.83;98605.63;5029238;28;20029;-70
2023/06/07 14:08:40;;;;;;;1.08;0.40;;;;;;;38.87;27.43;98606.19;5029765;28;20120;-70
2023/06/07 14:11:05;;;;;;;0.38;0.38;;;;;;;38.91;28.51;98602.19;5031208;28;20029;-70
2023/06/07 14:13:31;;;;;;;0.98;0.40;;;;;;;39.40;28.60;98597.88;5018908;28;20021;-70
2023/06/07 14:15:57;;;;;;;0.57;0.35;;;;;;;39.70;28.64;98598.75;5022431;28;20034;-70
2023/06/07 14:18:23;;;;;;;0.50;0.50;;;;;;;39.94;28.92;98599.97;5019752;28;20480;-70
2023/06/07 14:20:48;;;;;;;0.60;0.60;;;;;;;38.00;28.94;98579.44;5026759;28;20092;-70
2023/06/07 14:23:13;;;;;;;0.47;0.47;;;;;;;38.44;28.82;98578.53;5029202;28;20311;-70
2023/06/07 14:25:39;;;;;;;0.30;0.30;;;;;;;39.73;27.97;98586.59;5014196;28;20025;-70
2023/06/07 14:28:04;;;;;;;2.10;0.50;;;;;;;39.92;28.19;98585.41;5023796;28;20024;-70
2023/06/07 14:30:30;;;;;;;0.77;0.57;;;;;;;41.16;28.06;98575.75;5016080;28;20285;-70
2023/06/07 14:32:55;;;;;;;1.40;0.60;;;;;;;40.60;27.57;98563.38;5010700;28;20071;-70
2023/06/07 14:35:21;;;;;;;1.02;0.45;;;;;;;40.59;28.09;98570.28;5018235;28;20033;-70
2023/06/07 14:37:46;;;;;;;0.30;0.30;;;;;;;40.59;27.54;98570.28;5030183;28;20029;-70
2023/06/07 14:40:11;;;;;;;1.00;0.63;;;;;;;40.17;28.07;98566.34;5024538;28;20025;-70
2023/06/07 14:42:37;;;;;;;0.50;0.50;;;;;;;39.12;28.62;98583.63;5024368;28;20942;-70
2023/06/07 14:45:05;;;;;;;1.05;0.52;;;;;;;36.38;30.37;98579.66;5031257;28;20030;-70
2023/06/07 14:47:30;;;;;;;0.63;0.50;;;;;;;34.41;33.58;98580.84;5018571;28;20036;-72
2023/06/07 14:49:56;;;;;;;2.70;0.65;;;;;;;32.82;35.82;98583.59;5033070;28;20041;-71
2023/06/07 14:52:21;;;;;;;0.73;0.70;;;;;;;31.76;36.28;98565.09;5031422;28;20087;-70
2023/06/07 14:54:46;;;;;;;0.90;0.70;;;;;;;30.50;38.00;98568.22;5007632;28;20029;-71
2023/06/07 14:57:12;;;;;;;0.70;0.65;;;;;;;31.07;38.14;98578.69;5022039;28;20103;-71
2023/06/07 14:59:39;;;;;;;0.70;0.60;;;;;;;32.29;37.57;98580.00;5021757;28;20041;-71
2023/06/07 15:02:05;;;;;;;1.23;0.75;;;;;;;32.62;36.58;98565.81;5028058;28;20028;-71
2023/06/07 15:04:30;;;;;;;1.15;0.80;;;;;;;33.69;36.01;98570.72;5028893;28;20041;-72
2023/06/07 15:06:56;;;;;;;1.08;0.80;;;;;;;34.84;34.86;98560.09;5014978;28;20037;-72
2023/06/07 15:09:22;;;;;;;1.00;0.50;;;;;;;35.66;33.76;98574.91;5024645;28;20041;-72
2023/06/07 15:11:47;;;;;;;1.48;0.60;;;;;;;35.79;33.40;98572.72;5007543;28;20052;-72
2023/06/07 15:14:13;;;;;;;0.75;0.60;;;;;;;35.68;32.56;98552.00;5022611;28;20375;-71
2023/06/07 15:16:39;;;;;;;0.50;0.50;;;;;;;36.09;32.26;98569.19;5023340;28;20033;-72
2023/06/07 15:19:04;;;;;;;1.10;0.57;;;;;;;34.83;33.08;98566.91;5030498;28;20029;-72
2023/06/07 15:21:30;;;;;;;0.60;0.57;;;;;;;34.89;33.33;98565.41;5027547;28;20124;-72
2023/06/07 15:23:55;;;;;;;1.48;0.70;;;;;;;34.30;33.87;98565.75;5019757;28;20069;-73
2023/06/07 15:26:21;;;;;;;0.80;0.60;;;;;;;33.81;33.35;98552.97;5029600;28;20099;-72
2023/06/07 15:28:46;;;;;;;0.90;0.73;;;;;;;33.11;34.04;98548.78;5011418;28;20052;-72
2023/06/07 15:31:12;;;;;;;0.70;0.70;;;;;;;32.37;34.60;98545.44;5027644;28;20037;-72
2023/06/07 15:33:37;;;;;;;1.10;0.75;;;;;;;31.65;35.94;98554.38;5025063;28;20024;-72
2023/06/07 15:36:02;;;;;;;0.60;0.60;;;;;;;30.14;37.71;98547.28;5023256;28;20029;-72
2023/06/07 15:38:31;;;;;;;0.75;0.73;;;;;;;30.89;37.08;98547.38;5006197;28;20279;-72
2023/06/07 15:40:57;;;;;;;0.80;0.55;;;;;;;30.68;37.75;98550.16;5021840;28;20018;-72
2023/06/07 15:43:22;;;;;;;1.48;1.02;;;;;;;30.44;37.91;98552.81;5029023;28;20093;-72
2023/06/07 15:45:47;;;;;;;2.17;0.77;;;;;;;29.92;37.73;98546.44;5033778;28;20079;-73
2023/06/07 15:48:13;;;;;;;1.35;0.60;;;;;;;29.56;37.53;98538.59;5032072;28;20075;-73
2023/06/07 15:50:39;;;;;;;1.02;0.60;;;;;;;29.33;37.21;98532.44;5031651;28;20037;-74
2023/06/07 15:53:05;;;;;;;0.68;0.60;;;;;;;30.15;36.20;98543.34;5014587;28;20025;-74
2023/06/07 15:55:30;;;;;;;0.65;0.60;;;;;;;30.60;35.33;98525.91;5027992;28;20105;-74
2023/06/07 15:57:55;;;;;;;0.70;0.70;;;;;;;30.99;34.08;98537.72;5028929;28;20044;-74
2023/06/07 16:00:21;;;;;;;1.63;0.70;;;;;;;30.26;35.16;98536.25;5026333;28;20038;-75
2023/06/07 16:02:46;;;;;;;1.00;0.50;;;;;;;30.44;36.24;98536.06;5018968;28;20039;-74
2023/06/07 16:05:12;;;;;;;2.65;0.70;;;;;;;30.17;37.31;98535.44;5008242;28;20024;-74
2023/06/07 16:07:37;;;;;;;0.93;0.70;;;;;;;30.11;37.27;98520.88;5024848;28;20511;-74
2023/06/07 16:10:03;;;;;;;1.35;0.60;;;;;;;30.01;36.44;98526.88;5011645;28;20107;-75
2023/06/07 16:12:32;;;;;;;0.93;0.60;;;;;;;29.78;36.55;98520.78;5033457;28;20066;-74
2023/06/07 16:14:58;;;;;;;2.90;0.85;;;;;;;29.68;35.59;98537.88;5007040;28;20026;-75
2023/06/07 16:17:24;;;;;;;1.23;0.52;;;;;;;29.41;36.41;98533.56;5028180;28;20029;-74
2023/06/07 16:19:49;;;;;;;0.70;0.65;;;;;;;29.51;36.09;98502.53;5023381;28;20033;-74
2023/06/07 16:22:15;;;;;;;0.95;0.70;;;;;;;28.75;36.97;98523.59;5017274;28;20372;-74
2023/06/07 16:24:41;;;;;;;1.42;0.70;;;;;;;28.81;37.45;98533.38;5018130;28;20025;-74
2023/06/07 16:27:06;;;;;;;0.93;0.60;;;;;;;28.94;37.55;98514.84;5045415;28;20025;-74
2023/06/07 16:29:31;;;;;;;0.68;0.68;;;;;;;29.40;37.47;98507.69;5025640;28;20127;-75
2023/06/07 16:31:57;;;;;;;1.05;0.85;;;;;;;29.17;38.04;98515.47;5028110;28;20487;-75
2023/06/07 16:34:22;;;;;;;1.77;0.70;;;;;;;28.74;38.60;98509.97;5020005;28;20506;-74
2023/06/07 16:36:47;;;;;;;0.95;0.70;;;;;;;28.82;39.16;98520.31;5029133;28;20057;-74
2023/06/07 16:39:13;;;;;;;1.55;0.90;;;;;;;28.93;39.27;98507.66;5021421;28;20033;-74
2023/06/07 16:41:40;;;;;;;1.45;0.70;;;;;;;29.18;39.85;98505.13;5021735;28;20951;-74
2023/06/07 16:44:07;;;;;;;0.75;0.70;;;;;;;29.17;39.65;98503.50;5018489;28;20041;-74
2023/06/07 16:46:32;;;;;;;0.80;0.60;;;;;;;29.14;39.49;98515.34;5021422;28;20090;-74
2023/06/07 16:48:57;;;;;;;1.88;0.65;;;;;;;29.23;39.38;98521.66;5028431;28;20053;-74
2023/06/07 16:51:23;;;;;;;0.63;0.63;;;;;;;28.86;39.38;98496.22;5031991;28;20503;-74
2023/06/07 16:53:48;;;;;;;1.15;1.00;;;;;;;28.91;40.33;98512.72;4999516;28;20032;-74
2023/06/07 16:56:13;;;;;;;1.17;0.80;;;;;;;28.13;40.89;98505.25;5023022;28;20025;-74
2023/06/07 16:58:38;;;;;;;3.05;0.82;;;;;;;27.60;41.13;98503.53;5018975;28;20040;-74
2023/06/07 17:01:04;;;;;;;0.68;0.68;;;;;;;27.72;41.70;98492.59;5012239;28;20053;-74
2023/06/07 17:03:29;;;;;;;1.05;0.70;;;;;;;27.94;42.97;98497.22;5013763;28;20546;-73
2023/06/07 17:05:55;;;;;;;1.20;0.75;;;;;;;28.20;42.69;98510.34;5031065;28;20028;-74
2023/06/07 17:08:20;;;;;;;1.35;0.90;;;;;;;28.05;42.73;98506.06;5013511;28;20033;-74
2023/06/07 17:10:47;;;;;;;2.50;1.00;;;;;;;28.08;42.62;98502.63;5023825;28;20068;-72
2023/06/07 17:13:13;;;;;;;1.33;0.80;;;;;;;28.10;42.71;98511.47;5024574;28;20087;-72
2023/06/07 17:15:38;;;;;;;0.85;0.70;;;;;;;27.95;43.06;98504.41;5022490;28;20025;-71
2023/06/07 17:18:03;;;;;;;1.63;1.05;;;;;;;27.80;42.96;98499.31;5012537;28;20450;-71
2023/06/07 17:20:29;;;;;;;1.48;0.73;;;;;;;27.82;43.86;98510.94;5029604;28;20034;-72
2023/06/07 17:22:56;;;;;;;1.63;0.90;;;;;;;27.75;43.90;98511.41;5025577;28;20049;-71
2023/06/07 17:25:21;;;;;;;0.90;0.63;;;;;;;27.59;44.08;98496.34;5020124;28;20487;-71
2023/06/07 17:27:47;;;;;;;1.50;0.95;;;;;;;27.38;44.66;98492.50;5028267;28;20036;-72
2023/06/07 17:30:12;;;;;;;0.82;0.82;;;;;;;27.20;44.99;98514.66;5021621;28;20026;-71
2023/06/07 17:32:37;;;;;;;1.40;0.70;;;;;;;27.04;45.92;98508.69;5024927;28;20044;-71
2023/06/07 17:35:04;;;;;;;1.65;0.75;;;;;;;26.79;46.77;98501.84;5021364;28;20028;-71
2023/06/07 17:37:30;;;;;;;1.52;0.77;;;;;;;26.59;46.48;98519.00;5014484;28;20033;-71
2023/06/07 17:39:55;;;;;;;1.50;0.70;;;;;;;26.45;47.61;98502.41;5018164;28;20423;-71
2023/06/07 17:42:20;;;;;;;1.77;0.88;;;;;;;26.39;48.08;98506.44;5026755;28;20108;-71
2023/06/07 17:44:51;;;;;;;1.27;0.85;;;;;;;26.28;48.60;98522.53;5021495;28;20051;-71
2023/06/07 17:47:16;;;;;;;1.67;0.82;;;;;;;26.12;49.48;98512.91;5025579;28;20025;-71
2023/06/07 17:49:41;;;;;;;3.22;1.05;;;;;;;25.89;50.50;98507.31;5006465;28;20117;-71
2023/06/07 17:52:07;;;;;;;2.85;0.90;;;;;;;25.57;51.62;98478.63;5026453;28;20025;-70
2023/06/07 17:54:32;;;;;;;1.80;0.60;;;;;;;25.62;52.59;98507.34;5025482;28;20030;-71
2023/06/07 17:56:58;;;;;;;2.67;1.17;;;;;;;25.50;53.88;98508.69;5029006;28;20045;-71
2023/06/07 17:59:24;;;;;;;1.00;0.88;;;;;;;25.31;55.57;98486.66;5021320;28;20030;-71
2023/06/07 18:01:51;;;;;;;1.48;1.00;;;;;;;25.28;56.27;98503.03;5022612;28;20018;-71
2023/06/07 18:04:17;;;;;;;1.40;1.15;;;;;;;25.19;57.11;98511.25;5019279;28;20030;-70
2023/06/07 18:06:42;;;;;;;1.52;0.95;;;;;;;25.11;58.18;98509.97;5011273;28;20116;-70
2023/06/07 18:09:07;;;;;;;1.25;0.85;;;;;;;24.96;59.19;98506.69;5020048;28;20048;-70
2023/06/07 18:11:33;;;;;;;1.48;0.98;;;;;;;24.92;62.88;98517.53;5018763;28;20108;-70
2023/06/07 18:13:58;;;;;;;1.60;1.00;;;;;;;24.79;65.32;98521.09;5014557;28;20045;-70
2023/06/07 18:16:23;;;;;;;2.33;0.90;;;;;;;24.66;67.40;98517.19;5033436;28;20037;-70
2023/06/07 18:18:49;;;;;;;1.55;0.80;;;;;;;24.53;71.79;98521.53;5033045;28;20025;-70
2023/06/07 18:21:15;;;;;;;1.23;0.90;;;;;;;24.34;76.30;98506.88;5033762;28;20115;-70
2023/06/07 18:23:40;;;;;;;1.33;1.00;;;;;;;24.29;80.05;98524.38;5010962;28;20506;-70
2023/06/07 18:26:06;;;;;;;1.63;0.90;;;;;;;24.12;83.28;98515.78;5028781;28;20033;-70
2023/06/07 18:28:31;;;;;;;0.82;0.80;;;;;;;24.05;84.32;98524.44;5029471;28;20030;-70
2023/06/07 18:30:57;;;;;;;2.10;1.15;;;;;;;23.93;85.61;98518.56;5025276;28;20037;-70
2023/06/07 18:33:22;;;;;;;1.35;1.05;;;;;;;23.88;86.49;98527.72;5026170;28;20041;-71
2023/06/07 18:35:47;;;;;;;1.67;1.27;;;;;;;23.78;90.16;98534.22;5026546;28;20025;-70
2023/06/07 18:38:13;;;;;;;1.55;1.20;;;;;;;23.61;99.45;98528.34;5021153;28;20049;-70
2023/06/07 18:40:38;;;;;;;3.33;1.25;;;;;;;23.46;100.00;98536.81;5021095;28;20057;-70
2023/06/07 18:43:03;;;;;;;3.75;1.10;;;;;;;23.34;100.00;98528.94;5026041;28;20502;-70
2023/06/07 18:45:29;;;;;;;1.58;0.98;;;;;;;23.24;100.00;98529.91;5020695;28;20032;-70
2023/06/07 18:47:55;;;;;;;1.48;1.02;;;;;;;23.08;100.00;98528.38;5028780;28;20036;-70
2023/06/07 18:50:20;;;;;;;1.05;0.90;;;;;;;22.83;100.00;98522.00;5015196;28;20029;-70
2023/06/07 18:52:45;;;;;;;1.15;1.00;;;;;;;22.65;100.00;98519.97;5029051;28;20032;-70
2023/06/07 18:55:11;;;;;;;0.90;0.80;;;;;;;22.58;100.00;98531.31;5028813;28;20022;-70
2023/06/07 18:57:36;;;;;;;1.13;0.90;;;;;;;22.42;100.00;98530.63;5027025;28;20499;-70
2023/06/07 19:00:02;;;;;;;1.60;1.00;;;;;;;22.30;100.00;98533.75;5030976;28;20032;-70
2023/06/07 19:02:27;;;;;;;2.10;1.13;;;;;;;22.13;100.00;98536.03;5028440;28;20039;-70
2023/06/07 19:04:53;;;;;;;3.35;1.13;;;;;;;21.88;100.00;98537.84;5022995;28;20105;-70
2023/06/07 19:07:18;;;;;;;3.83;1.10;;;;;;;21.68;100.00;98537.94;5031757;28;20025;-70
2023/06/07 19:09:44;;;;;;;3.88;1.17;;;;;;;21.64;100.00;98540.44;5029300;28;20506;-70
2023/06/07 19:12:10;;;;;;;4.50;1.42;;;;;;;21.43;100.00;98544.38;5029421;28;20025;-70
2023/06/07 19:14:35;;;;;;;1.48;1.27;;;;;;;21.28;100.00;98538.91;5032276;28;20037;-70
2023/06/07 19:17:02;;;;;;;2.13;1.20;;;;;;;21.14;100.00;98545.00;5024708;28;20033;-70
2023/06/07 19:19:29;;;;;;;1.73;1.10;;;;;;;20.99;100.00;98554.09;5004128;28;20120;-70
2023/06/07 19:21:55;;;;;;;1.52;1.08;;;;;;;20.87;100.00;98542.53;5013355;28;20067;-70
2023/06/07 19:24:20;;;;;;;3.67;1.52;;;;;;;20.81;100.00;98546.41;5013267;28;20048;-70
2023/06/07 19:26:45;;;;;;;1.88;1.10;;;;;;;20.67;100.00;98548.91;5019686;28;20036;-71
2023/06/07 19:29:11;;;;;;;2.55;1.30;;;;;;;20.60;100.00;98553.84;5027215;28;20028;-70
2023/06/07 19:31:36;;;;;;;1.27;1.15;;;;;;;20.49;100.00;98553.00;5032388;28;20029;-70
2023/06/07 19:34:05;;;;;;;2.88;1.13;;;;;;;20.50;100.00;98559.31;5026950;28;20037;-71
2023/06/07 19:36:30;;;;;;;2.22;1.23;;;;;;;20.34;100.00;98559.28;5028366;28;20083;-70
2023/06/07 19:38:56;;;;;;;3.30;1.50;;;;;;;20.21;100.00;98565.31;5024118;28;20034;-70
2023/06/07 19:41:23;;;;;;;3.92;1.70;;;;;;;20.11;100.00;98552.38;5017570;28;20080;-70
2023/06/07 19:43:48;;;;;;;2.47;1.45;;;;;;;20.01;100.00;98559.78;5024335;28;20040;-71
2023/06/07 19:46:13;;;;;;;5.03;1.63;;;;;;;19.85;100.00;98545.19;5016780;28;20030;-70
2023/06/07 19:48:41;;;;;;;3.47;1.42;;;;;;;19.70;100.00;98545.94;5015881;28;20095;-70
2023/06/07 19:51:08;;;;;;;2.85;1.77;;;;;;;19.59;100.00;98558.78;5021992;28;20022;-70
2023/06/07 19:53:34;;;;;;;3.67;2.20;;;;;;;19.40;100.00;98555.69;5031523;28;20499;-71
2023/06/07 19:55:59;;;;;;;7.75;3.05;;;;;;;19.31;100.00;98571.03;5032013;28;20033;-70
2023/06/07 19:58:24;;;;;;;3.92;2.20;;;;;;;19.11;100.00;98566.22;5020747;28;20454;-70
2023/06/07 20:00:50;;;;;;;3.80;1.88;;;;;;;18.96;100.00;98555.16;5018168;28;20067;-71
2023/06/07 20:03:15;;;;;;;4.32;1.70;;;;;;;18.97;100.00;98582.31;5028730;28;20022;-70
2023/06/07 20:05:40;;;;;;;3.70;1.85;;;;;;;18.87;100.00;98576.75;5003549;28;20029;-70
2023/06/07 20:08:07;;;;;;;3.70;1.67;;;;;;;18.76;100.00;98577.78;5027631;28;20037;-70
2023/06/07 20:10:33;;;;;;;5.75;1.92;;;;;;;18.66;100.00;98577.66;5031966;28;20048;-71
2023/06/07 20:12:58;;;;;;;5.50;1.58;;;;;;;18.48;100.00;98578.88;5030169;28;20499;-71
2023/06/07 20:15:23;;;;;;;3.03;1.60;;;;;;;18.40;100.00;98578.25;5022830;28;20047;-70